Time;durP1;ratioP1;P1;durP2;ratioP2;P2;SDS_P1;SDS_P2;PMS_P1;PMS_P2;Temp;Humidity;BMP_temperature;BMP_pressure;BME280_temperature;BME280_humidity;BME280_pressure;Samples;Min_cycle;Max_cycle;Signal;HPM_P1;HPM_P2
2022/05/31 00:01:31;;;;;;;;;7.50;6.00;;;;;15.05;42.53;100292.72;5081725;27;45501;-71
2022/05/31 00:03:56;;;;;;;;;6.25;5.00;;;;;15.14;42.34;100317.78;5080934;28;47305;-71
2022/05/31 00:06:22;;;;;;;;;6.00;6.00;;;;;15.16;42.52;100318.53;5081540;27;45271;-69
2022/05/31 00:08:47;;;;;;;;;6.00;6.00;;;;;15.07;42.38;100300.59;5076774;27;45244;-71
2022/05/31 00:11:14;;;;;;;;;5.25;5.00;;;;;15.20;42.85;100322.69;5080062;27;45443;-71
2022/05/31 00:13:39;;;;;;;;;5.50;5.00;;;;;15.19;42.32;100315.69;5078795;28;45335;-70
2022/05/31 00:16:05;;;;;;;;;6.75;6.00;;;;;15.19;42.54;100315.69;5078696;27;45347;-71
2022/05/31 00:18:31;;;;;;;;;5.00;5.00;;;;;15.17;42.53;100312.31;5081107;27;45241;-71
2022/05/31 00:20:56;;;;;;;;;4.25;4.25;;;;;15.17;42.22;100314.94;5081631;27;45449;-72
2022/05/31 00:23:22;;;;;;;;;4.25;4.25;;;;;15.13;42.20;100303.69;5082511;27;46415;-70
2022/05/31 00:25:47;;;;;;;;;5.25;5.25;;;;;15.11;42.02;100310.03;5082063;27;45266;-71
2022/05/31 00:28:13;;;;;;;;;4.00;4.00;;;;;15.10;42.12;100313.63;5082955;28;45229;-71
2022/05/31 00:30:39;;;;;;;;;3.50;2.75;;;;;15.06;42.06;100314.78;5085069;27;45291;-71
2022/05/31 00:33:07;;;;;;;;;5.00;5.00;;;;;15.06;42.39;100314.78;5081007;28;46327;-70
2022/05/31 00:35:38;;;;;;;;;4.00;4.00;;;;;15.03;42.20;100321.97;5076723;28;45484;-69
2022/05/31 00:38:04;;;;;;;;;5.00;3.25;;;;;14.99;42.26;100314.31;5078159;27;45369;-71
2022/05/31 00:40:32;;;;;;;;;3.75;3.75;;;;;15.01;42.25;100320.34;5079493;27;45462;-71
2022/05/31 00:43:03;;;;;;;;;1.75;1.00;;;;;14.97;42.61;100319.72;5079556;27;45310;-70
2022/05/31 00:45:41;;;;;;;;;5.75;5.75;;;;;14.94;42.71;100316.41;5079473;27;45346;-70
2022/05/31 00:48:11;;;;;;;;;8.25;6.75;;;;;14.95;42.67;100311.00;5079273;27;45474;-71
2022/05/31 00:50:47;;;;;;;;;8.75;7.75;;;;;14.95;42.96;100318.97;5079384;27;45189;-71
2022/05/31 00:53:19;;;;;;;;;5.75;5.75;;;;;14.94;42.95;100313.75;5077552;28;45327;-71
2022/05/31 00:55:50;;;;;;;;;6.50;5.00;;;;;14.91;42.84;100312.16;5080462;28;45342;-70
2022/05/31 00:58:29;;;;;;;;;4.75;4.75;;;;;14.92;43.15;100313.00;5078855;27;45430;-71
2022/05/31 01:00:58;;;;;;;;;7.50;7.50;;;;;14.88;43.06;100307.88;5078602;27;45384;-72
2022/05/31 01:03:23;;;;;;;;;5.00;5.00;;;;;14.93;43.23;100315.56;5077926;27;46116;-69
2022/05/31 01:05:49;;;;;;;;;5.75;5.00;;;;;14.92;43.14;100311.22;5079443;27;45276;-71
2022/05/31 01:08:15;;;;;;;;;5.00;5.00;;;;;14.95;43.25;100308.38;5082314;28;45272;-70
2022/05/31 01:10:42;;;;;;;;;5.50;4.00;;;;;14.96;43.17;100312.72;5078268;27;45507;-70
2022/05/31 01:13:10;;;;;;;;;4.25;4.25;;;;;14.97;43.29;100308.25;5077358;27;45337;-70
2022/05/31 01:15:36;;;;;;;;;4.25;4.25;;;;;14.97;43.26;100309.13;5079127;27;45382;-70
2022/05/31 01:18:03;;;;;;;;;6.00;2.75;;;;;14.98;43.31;100310.81;5078129;27;45344;-71
2022/05/31 01:20:28;;;;;;;;;2.25;2.25;;;;;14.98;43.05;100305.53;5078812;27;45574;-71
2022/05/31 01:22:57;;;;;;;;;5.75;4.50;;;;;15.00;43.20;100311.56;5077605;28;45708;-71
2022/05/31 01:25:22;;;;;;;;;3.25;3.25;;;;;15.01;42.78;100301.81;5077617;27;45394;-71
2022/05/31 01:28:10;;;;;;;;;2.75;2.75;;;;;15.02;43.00;100300.88;5084163;27;45804;-71
2022/05/31 01:30:46;;;;;;;;;2.75;2.75;;;;;14.98;42.73;100288.78;5078660;27;45224;-70
2022/05/31 01:33:19;;;;;;;;;3.75;3.75;;;;;15.02;43.31;100304.38;5084196;27;45449;-70
2022/05/31 01:35:45;;;;;;;;;5.00;5.00;;;;;14.98;43.01;100294.94;5077543;27;45273;-72
2022/05/31 01:38:25;;;;;;;;;4.00;4.00;;;;;14.98;43.14;100302.00;5078399;27;45341;-71
2022/05/31 01:41:16;;;;;;;;;4.50;4.50;;;;;14.96;43.49;100298.59;5077827;27;45381;-72
2022/05/31 01:43:44;;;;;;;;;5.25;4.75;;;;;14.93;43.75;100297.03;5077262;27;46165;-71
2022/05/31 01:46:16;;;;;;;;;4.50;4.50;;;;;14.90;43.76;100311.28;5077389;27;45460;-70
2022/05/31 01:48:43;;;;;;;;;5.00;5.00;;;;;14.86;43.68;100308.94;5076812;28;45980;-71
2022/05/31 01:51:12;;;;;;;;;6.25;4.75;;;;;14.82;43.82;100310.94;5082868;27;45316;-72
2022/05/31 01:53:37;;;;;;;;;5.50;5.50;;;;;14.80;44.13;100304.00;5077901;27;45607;-69
2022/05/31 01:56:05;;;;;;;;;4.50;4.50;;;;;14.80;44.14;100306.66;5077862;27;45342;-70
2022/05/31 01:58:35;;;;;;;;;4.00;4.00;;;;;14.73;44.02;100296.44;5080167;27;45224;-70
2022/05/31 02:01:02;;;;;;;;;7.00;7.00;;;;;14.77;43.98;100297.13;5081524;27;45297;-70
2022/05/31 02:03:30;;;;;;;;;5.00;5.00;;;;;14.83;44.23;100303.81;5083226;28;46727;-69
2022/05/31 02:05:55;;;;;;;;;5.00;5.00;;;;;14.83;44.26;100301.16;5077371;27;45217;-69
2022/05/31 02:08:24;;;;;;;;;8.50;5.00;;;;;14.84;44.12;100303.72;5076710;27;45156;-71
2022/05/31 02:10:50;;;;;;;;;5.50;5.50;;;;;14.82;44.15;100302.13;5076795;27;45310;-70
2022/05/31 02:13:17;;;;;;;;;5.00;5.00;;;;;14.84;44.29;100305.50;5076340;27;46078;-69
2022/05/31 02:15:44;;;;;;;;;5.75;5.75;;;;;14.86;44.18;100309.78;5076840;27;45435;-70
2022/05/31 02:18:12;;;;;;;;;5.25;5.25;;;;;14.87;44.61;100319.44;5076823;27;45218;-69
2022/05/31 02:20:38;;;;;;;;;4.50;4.50;;;;;14.85;44.11;100316.03;5080302;27;45255;-69
2022/05/31 02:23:04;;;;;;;;;6.00;6.00;;;;;14.84;44.45;100324.06;5076112;27;46077;-71
2022/05/31 02:25:29;;;;;;;;;5.50;5.50;;;;;14.81;44.83;100319.81;5076117;28;45339;-72
2022/05/31 02:27:55;;;;;;;;;4.25;4.25;;;;;14.77;45.08;100315.66;5076933;28;45446;-71
2022/05/31 02:30:21;;;;;;;;;5.75;5.75;;;;;14.76;45.12;100311.31;5077524;27;45370;-72
2022/05/31 02:32:46;;;;;;;;;4.75;4.75;;;;;14.77;44.98;100314.78;5077744;27;45397;-71
2022/05/31 02:35:12;;;;;;;;;6.25;5.25;;;;;14.77;45.22;100313.00;5077957;27;45239;-69
2022/05/31 02:37:38;;;;;;;;;7.50;7.00;;;;;14.78;45.43;100317.34;5076865;28;45287;-72
2022/05/31 02:40:05;;;;;;;;;6.25;6.25;;;;;14.77;45.30;100315.66;5076674;27;45611;-71
2022/05/31 02:42:31;;;;;;;;;4.75;4.75;;;;;14.73;45.33;100308.84;5078912;27;46374;-71
2022/05/31 02:44:56;;;;;;;;;7.00;6.50;;;;;14.69;45.46;100302.00;5075837;28;45319;-70
2022/05/31 02:47:22;;;;;;;;;5.00;5.00;;;;;14.77;45.68;100313.00;5078873;27;45295;-69
2022/05/31 02:49:48;;;;;;;;;5.00;5.00;;;;;14.77;45.85;100314.78;5076613;27;45622;-70
2022/05/31 02:52:14;;;;;;;;;4.50;4.50;;;;;14.69;45.92;100305.50;5076266;27;48104;-71
2022/05/31 02:54:40;;;;;;;;;6.00;6.00;;;;;14.70;45.66;100315.16;5076521;28;45459;-71
2022/05/31 02:57:05;;;;;;;;;6.00;6.00;;;;;14.70;45.96;100309.03;5076062;27;45354;-71
2022/05/31 02:59:31;;;;;;;;;6.50;6.50;;;;;14.68;45.95;100303.78;5074764;28;45569;-72
2022/05/31 03:01:57;;;;;;;;;6.50;5.75;;;;;14.68;46.26;100305.59;5079155;28;45273;-71
2022/05/31 03:04:22;;;;;;;;;10.25;6.00;;;;;14.67;46.17;100299.44;5078521;27;45386;-69
2022/05/31 03:06:48;;;;;;;;;6.00;6.00;;;;;14.65;46.23;100303.97;5074676;28;45386;-70
2022/05/31 03:09:14;;;;;;;;;6.25;6.25;;;;;14.67;46.51;100295.97;5076888;27;45462;-70
2022/05/31 03:11:46;;;;;;;;;6.00;6.00;;;;;14.62;46.57;100296.22;5078531;27;45518;-71
2022/05/31 03:14:32;;;;;;;;;9.25;7.25;;;;;14.57;46.97;100293.88;5078410;28;45334;-70
2022/05/31 03:17:04;;;;;;;;;7.75;7.25;;;;;14.53;46.86;100302.97;5079863;27;45290;-72
2022/05/31 03:19:34;;;;;;;;;7.00;7.00;;;;;14.52;46.81;100311.84;5080880;27;45289;-70
2022/05/31 03:22:05;;;;;;;;;6.00;5.00;;;;;14.51;47.04;100320.72;5081634;28;45353;-70
2022/05/31 03:24:43;;;;;;;;;2.00;2.00;;;;;14.32;47.29;100297.16;5081887;27;45335;-70
2022/05/31 03:27:11;;;;;;;;;7.25;6.00;;;;;14.42;47.32;100323.94;5080415;27;45403;-70
2022/05/31 03:29:42;;;;;;;;;7.25;7.25;;;;;14.37;47.19;100315.44;5078962;27;45476;-71
2022/05/31 03:32:08;;;;;;;;;7.00;7.00;;;;;14.29;47.39;100303.47;5077233;27;45528;-69
2022/05/31 03:34:34;;;;;;;;;10.00;7.00;;;;;14.35;47.53;100309.38;5080287;27;45598;-70
2022/05/31 03:36:59;;;;;;;;;6.00;6.00;;;;;14.34;47.65;100308.50;5079264;28;45259;-71
2022/05/31 03:39:24;;;;;;;;;10.50;10.50;;;;;14.35;47.46;100307.56;5078845;27;45542;-71
2022/05/31 03:41:50;;;;;;;;;5.50;5.50;;;;;14.31;47.70;100300.75;5076276;28;46935;-70
2022/05/31 03:44:15;;;;;;;;;6.50;6.25;;;;;14.23;47.69;100284.50;5078772;27;45239;-70
2022/05/31 03:46:41;;;;;;;;;8.00;7.00;;;;;14.23;47.85;100295.09;5080814;27;45337;-72
2022/05/31 03:49:06;;;;;;;;;7.50;6.25;;;;;14.11;47.86;100284.31;5079981;27;45628;-71
2022/05/31 03:51:32;;;;;;;;;7.00;6.00;;;;;14.16;47.72;100305.16;5080970;27;46238;-71
2022/05/31 03:53:58;;;;;;;;;6.00;6.00;;;;;14.13;47.97;100316.78;5078800;27;45356;-73
2022/05/31 03:56:23;;;;;;;;;5.50;5.50;;;;;14.09;47.89;100312.63;5080719;27;45215;-71
2022/05/31 03:58:49;;;;;;;;;5.00;5.00;;;;;14.07;48.01;100314.50;5081253;28;45475;-71
2022/05/31 04:01:15;;;;;;;;;7.25;6.00;;;;;14.06;48.00;100312.81;5078378;28;47187;-72
2022/05/31 04:03:41;;;;;;;;;5.75;5.75;;;;;14.08;47.61;100312.72;5075939;27;45546;-71
2022/05/31 04:06:07;;;;;;;;;5.50;5.50;;;;;14.07;48.18;100313.66;5080438;27;45285;-71
2022/05/31 04:08:33;;;;;;;;;6.75;5.25;;;;;14.09;48.23;100312.63;5082065;27;45279;-71
2022/05/31 04:10:59;;;;;;;;;5.25;5.25;;;;;14.09;48.26;100304.69;5078509;28;46003;-71
2022/05/31 04:13:25;;;;;;;;;9.00;7.75;;;;;14.10;48.13;100301.13;5078831;27;45317;-71
2022/05/31 04:16:10;;;;;;;;;6.00;6.00;;;;;14.15;48.12;100295.53;5078940;28;45223;-70
2022/05/31 04:18:37;;;;;;;;;6.00;5.00;;;;;14.14;48.21;100305.28;5081062;27;45231;-72
2022/05/31 04:21:04;;;;;;;;;6.25;5.00;;;;;14.10;48.23;100301.13;5079947;28;45222;-70
2022/05/31 04:26:14;;;;;;;;;5.25;4.00;;;;;14.03;47.84;100291.84;5080593;28;45433;-72
2022/05/31 04:28:40;;;;;;;;;5.00;5.00;;;;;14.04;47.94;100296.19;5080508;27;45567;-73
2022/05/31 04:31:06;;;;;;;;;5.00;4.25;;;;;14.02;48.03;100293.63;5079988;27;45278;-72
2022/05/31 04:33:32;;;;;;;;;5.25;4.00;;;;;14.06;47.88;100296.09;5081573;27;45377;-71
2022/05/31 04:36:05;;;;;;;;;5.25;3.75;;;;;14.07;47.82;100301.28;5081233;27;45298;-70
2022/05/31 04:38:31;;;;;;;;;3.50;3.50;;;;;14.07;47.69;100295.13;5079638;27;45305;-71
2022/05/31 04:40:56;;;;;;;;;4.25;4.25;;;;;14.10;47.90;100302.88;5079146;27;46097;-72
2022/05/31 04:43:22;;;;;;;;;5.50;4.00;;;;;14.10;47.97;100308.19;5079306;27;45369;-70
2022/05/31 04:45:48;;;;;;;;;4.00;4.00;;;;;14.07;47.81;100301.28;5079140;27;45289;-72
2022/05/31 04:48:14;;;;;;;;;5.00;5.00;;;;;14.03;48.04;100282.09;5078617;27;45227;-70
2022/05/31 04:50:39;;;;;;;;;5.50;5.25;;;;;14.19;47.70;100306.78;5079470;28;48251;-71
2022/05/31 04:53:05;;;;;;;;;4.00;4.00;;;;;14.16;47.71;100294.59;5081458;28;45243;-71
2022/05/31 04:55:30;;;;;;;;;6.50;5.00;;;;;14.28;47.77;100304.44;5079753;27;45250;-71
2022/05/31 04:57:55;;;;;;;;;6.25;6.25;;;;;14.38;48.05;100304.72;5079779;27;45136;-71
2022/05/31 05:00:21;;;;;;;;;4.50;3.25;;;;;14.48;47.75;100314.75;5078872;28;48487;-71
2022/05/31 05:02:46;;;;;;;;;5.50;5.50;;;;;14.58;48.00;100321.19;5080776;28;45802;-71
2022/05/31 05:05:16;;;;;;;;;4.00;4.00;;;;;14.69;47.65;100325.84;5081946;27;45283;-72
2022/05/31 05:07:41;;;;;;;;;6.25;5.00;;;;;14.75;47.51;100317.53;5088364;27;45560;-71
2022/05/31 05:10:08;;;;;;;;;12.50;12.00;;;;;14.80;47.47;100314.59;5080316;27;46108;-71
2022/05/31 05:12:34;;;;;;;;;4.00;4.00;;;;;14.80;47.13;100302.22;5082384;27;45242;-73
2022/05/31 05:15:00;;;;;;;;;4.25;3.50;;;;;14.88;46.92;100321.13;5079835;27;45240;-70
2022/05/31 05:17:26;;;;;;;;;2.25;2.25;;;;;14.89;46.63;100325.47;5080592;27;45204;-71
2022/05/31 05:19:51;;;;;;;;;4.75;4.75;;;;;14.95;47.26;100321.63;5080038;27;45697;-71
2022/05/31 05:22:17;;;;;;;;;6.75;5.00;;;;;15.17;46.28;100326.38;5079873;28;45278;-70
2022/05/31 05:24:43;;;;;;;;;4.00;4.00;;;;;15.32;46.33;100331.66;5080470;27;45639;-71
2022/05/31 05:27:08;;;;;;;;;4.50;4.00;;;;;15.50;46.00;100326.97;5079600;27;45418;-73
2022/05/31 05:32:18;;;;;;;;;6.00;6.00;;;;;15.56;45.41;100328.38;5080886;28;45284;-72
2022/05/31 05:34:47;;;;;;;;;3.25;3.25;;;;;15.65;45.59;100337.50;5079068;28;46293;-72
2022/05/31 05:37:13;;;;;;;;;5.25;5.25;;;;;15.64;44.79;100347.28;5080812;27;45283;-72
2022/05/31 05:39:39;;;;;;;;;6.75;5.00;;;;;15.62;45.51;100342.06;5080276;28;45354;-73
2022/05/31 05:42:04;;;;;;;;;5.50;5.50;;;;;15.63;45.14;100346.41;5081163;28;45228;-72
2022/05/31 05:44:30;;;;;;;;;5.00;5.00;;;;;15.68;45.19;100346.13;5079731;28;45295;-70
2022/05/31 05:46:55;;;;;;;;;3.75;3.75;;;;;15.76;45.20;100338.53;5079503;27;45310;-69
2022/05/31 05:49:20;;;;;;;;;7.50;5.00;;;;;15.83;45.10;100344.25;5078570;27;46282;-71
2022/05/31 05:51:48;;;;;;;;;4.00;4.00;;;;;15.88;44.88;100344.00;5078903;27;45290;-70
2022/05/31 05:54:13;;;;;;;;;6.50;4.50;;;;;15.95;44.87;100339.16;5077751;28;45292;-69
2022/05/31 05:56:38;;;;;;;;;7.25;6.25;;;;;16.08;44.83;100353.28;5082072;27;45680;-70
2022/05/31 05:59:04;;;;;;;;;8.00;7.00;;;;;16.13;44.21;100345.88;5080195;27;46089;-70
2022/05/31 06:01:56;;;;;;;;;8.00;8.00;;;;;16.20;44.36;100347.16;5079367;27;45400;-69
2022/05/31 06:04:48;;;;;;;;;7.00;7.00;;;;;16.36;44.39;100348.75;5081884;27;45210;-70
2022/05/31 06:07:13;;;;;;;;;8.75;8.75;;;;;16.43;44.04;100355.34;5081234;27;45200;-70
2022/05/31 06:09:43;;;;;;;;;5.00;5.00;;;;;16.47;44.15;100354.19;5079359;27;45242;-70
2022/05/31 06:12:15;;;;;;;;;9.25;8.00;;;;;16.52;44.88;100353.88;5079039;27;45288;-72
2022/05/31 06:14:46;;;;;;;;;7.00;7.00;;;;;16.54;44.40;100354.63;5078569;28;45418;-74
2022/05/31 06:17:17;;;;;;;;;6.50;5.00;;;;;16.64;43.76;100362.78;5081423;27;45382;-70
2022/05/31 06:19:45;;;;;;;;;7.00;7.00;;;;;16.64;43.69;100363.66;5081965;27;45358;-69
2022/05/31 06:22:11;;;;;;;;;8.00;6.75;;;;;16.62;43.95;100354.06;5080681;27;45337;-72
2022/05/31 06:24:40;;;;;;;;;9.00;9.00;;;;;16.64;44.04;100362.78;5079895;27;45231;-69
2022/05/31 06:27:06;;;;;;;;;7.50;6.25;;;;;16.66;44.07;100360.88;5080282;27;45536;-74
2022/05/31 06:29:31;;;;;;;;;6.25;6.25;;;;;16.68;43.84;100356.31;5079319;27;46032;-74
2022/05/31 06:31:57;;;;;;;;;16.25;11.50;;;;;16.73;44.02;100358.66;5078431;27;45294;-71
2022/05/31 06:34:23;;;;;;;;;6.50;6.50;;;;;16.83;43.38;100364.16;5077983;28;45209;-70
2022/05/31 06:36:49;;;;;;;;;8.25;8.00;;;;;16.71;43.63;100340.16;5074282;27;45489;-67
2022/05/31 06:39:15;;;;;;;;;7.00;7.00;;;;;16.73;43.34;100351.50;4975710;28;45817;-67
2022/05/31 06:41:41;;;;;;;;;6.00;6.00;;;;;16.82;43.45;100362.44;4971862;28;45807;-70
2022/05/31 06:44:07;;;;;;;;;9.25;8.50;;;;;16.82;43.44;100363.31;4973618;27;45376;-69
2022/05/31 06:46:32;;;;;;;;;7.00;7.00;;;;;16.85;43.71;100365.75;4961338;28;45693;-68
2022/05/31 06:49:00;;;;;;;;;10.25;8.50;;;;;16.92;43.60;100367.03;4961599;28;46775;-70
2022/05/31 06:57:08;;;;;;;;;11.50;11.00;;;;;17.64;43.44;100368.13;4975820;28;45233;-71
2022/05/31 06:59:33;;;;;;;;;9.50;9.50;;;;;17.94;42.73;100361.50;4958959;28;46660;-72
2022/05/31 07:02:04;;;;;;;;;8.75;8.00;;;;;18.14;41.83;100371.66;4970853;28;45569;-69
2022/05/31 07:04:35;;;;;;;;;8.75;8.75;;;;;18.23;42.29;100369.16;4980696;27;45174;-70
2022/05/31 07:07:00;;;;;;;;;10.00;9.00;;;;;18.32;41.31;100372.91;4970749;28;45419;-70
2022/05/31 07:09:26;;;;;;;;;9.00;9.00;;;;;18.33;40.97;100366.63;4956556;28;45480;-71
2022/05/31 07:11:51;;;;;;;;;10.00;8.00;;;;;18.38;41.14;100369.78;4956132;28;45401;-69
2022/05/31 07:14:16;;;;;;;;;12.00;7.00;;;;;18.39;40.42;100370.66;4957415;28;45510;-70
2022/05/31 07:16:42;;;;;;;;;6.00;6.00;;;;;18.31;40.28;100373.88;4955875;28;45297;-70
2022/05/31 07:19:07;;;;;;;;;8.50;6.75;;;;;18.23;40.04;100370.94;4959138;28;46224;-72
2022/05/31 07:21:33;;;;;;;;;8.25;7.75;;;;;18.18;40.21;100370.44;4956634;28;45347;-71
2022/05/31 07:23:58;;;;;;;;;7.25;7.25;;;;;18.30;40.25;100377.50;4966778;28;45381;-70
2022/05/31 07:26:24;;;;;;;;;9.25;6.00;;;;;18.34;40.10;100375.47;4957818;28;45818;-72
2022/05/31 07:28:50;;;;;;;;;7.75;7.00;;;;;18.38;40.05;100382.25;4975822;28;45441;-72
2022/05/31 07:31:15;;;;;;;;;7.00;7.00;;;;;18.35;40.03;100379.84;4984084;28;45314;-70
2022/05/31 07:33:41;;;;;;;;;7.00;6.75;;;;;18.33;40.16;100379.94;4975058;28;45165;-70
2022/05/31 07:36:07;;;;;;;;;14.25;8.50;;;;;18.33;40.04;100379.09;4972615;28;45527;-70
2022/05/31 07:38:33;;;;;;;;;7.00;7.00;;;;;18.14;40.20;100353.03;4972038;28;46337;-71
2022/05/31 07:40:59;;;;;;;;;8.00;8.00;;;;;18.28;40.54;100383.94;4972112;28;45432;-70
2022/05/31 07:43:25;;;;;;;;;10.75;7.00;;;;;18.22;40.16;100377.25;4973771;28;45393;-69
2022/05/31 07:45:59;;;;;;;;;7.75;7.75;;;;;18.21;40.36;100381.72;4972591;28;45602;-69
2022/05/31 07:48:24;;;;;;;;;17.75;14.25;;;;;18.25;40.50;100388.53;4972378;28;45500;-69
2022/05/31 07:50:50;;;;;;;;;11.00;9.75;;;;;18.39;40.50;100378.63;4972850;28;45391;-70
2022/05/31 07:53:15;;;;;;;;;11.00;10.00;;;;;18.59;41.01;100381.56;4972829;28;45416;-71
2022/05/31 07:55:41;;;;;;;;;12.00;11.00;;;;;18.86;40.46;100385.72;4973407;28;45604;-70
2022/05/31 08:00:50;;;;;;;;;9.75;9.75;;;;;19.22;38.94;100387.31;4975535;28;45285;-70
2022/05/31 08:03:15;;;;;;;;;13.50;12.00;;;;;19.34;38.12;100385.50;4976930;28;45516;-69
2022/05/31 08:05:41;;;;;;;;;9.75;9.75;;;;;19.40;38.43;100385.00;4974915;28;45291;-72
2022/05/31 08:08:06;;;;;;;;;8.50;7.25;;;;;19.52;37.73;100387.66;4974480;27;45537;-71
2022/05/31 08:10:32;;;;;;;;;7.25;7.25;;;;;19.59;37.38;100391.50;4973908;28;45311;-70
2022/05/31 08:12:58;;;;;;;;;8.25;6.75;;;;;19.65;36.97;100391.00;4972930;28;45322;-70
2022/05/31 08:15:23;;;;;;;;;7.75;6.75;;;;;19.62;36.68;100393.09;4972883;28;45583;-70
2022/05/31 08:17:48;;;;;;;;;7.00;6.00;;;;;19.46;36.79;100372.97;4972557;28;45844;-69
2022/05/31 08:20:16;;;;;;;;;7.25;7.25;;;;;19.44;37.14;100358.91;4972844;28;45375;-71
2022/05/31 08:22:46;;;;;;;;;8.25;6.25;;;;;19.61;36.88;100392.22;4972935;28;45345;-71
2022/05/31 08:25:12;;;;;;;;;8.50;5.50;;;;;19.66;37.06;100386.53;4972567;28;45282;-69
2022/05/31 08:27:38;;;;;;;;;9.25;9.25;;;;;19.65;37.38;100392.84;4973111;28;45433;-70
2022/05/31 08:30:05;;;;;;;;;8.00;6.50;;;;;19.46;37.10;100361.47;4974621;28;45394;-69
2022/05/31 08:32:33;;;;;;;;;8.50;8.50;;;;;19.41;37.03;100384.03;4977425;28;45307;-71
2022/05/31 08:34:58;;;;;;;;;8.75;7.00;;;;;19.28;37.70;100388.66;4977977;28;45341;-70
2022/05/31 08:37:24;;;;;;;;;5.75;5.75;;;;;19.22;37.30;100386.47;4977470;28;46141;-71
2022/05/31 08:39:50;;;;;;;;;10.50;9.00;;;;;19.16;37.52;100386.97;4977739;28;45574;-70
2022/05/31 08:42:22;;;;;;;;;8.75;7.75;;;;;19.14;37.68;100376.41;4978634;28;45371;-70
2022/05/31 08:45:22;;;;;;;;;11.75;10.25;;;;;19.24;37.50;100382.72;4976308;28;45422;-69
2022/05/31 08:48:30;;;;;;;;;4.25;4.25;;;;;19.27;37.20;100379.78;4976076;28;45373;-70
2022/05/31 08:56:57;;;;;;;;;8.50;7.50;;;;;19.53;36.79;100384.00;4975905;28;45362;-71
2022/05/31 08:59:47;;;;;;;;;7.50;5.50;;;;;19.60;36.35;100385.19;4975173;28;45328;-70
2022/05/31 09:02:21;;;;;;;;;6.00;6.00;;;;;19.69;36.23;100386.28;4975970;28;45404;-71
2022/05/31 09:04:59;;;;;;;;;4.50;3.00;;;;;19.74;35.75;100386.75;4976056;28;45412;-69
2022/05/31 09:07:33;;;;;;;;;4.00;4.00;;;;;19.68;35.61;100382.75;4975733;28;45249;-70
2022/05/31 09:10:07;;;;;;;;;4.00;4.00;;;;;19.69;35.91;100388.94;4975093;28;46049;-72
2022/05/31 09:12:38;;;;;;;;;5.50;5.50;;;;;19.71;35.28;100385.16;4975643;28;45457;-71
2022/05/31 09:15:15;;;;;;;;;8.50;7.50;;;;;19.81;35.53;100387.06;4975735;28;45291;-70
2022/05/31 09:18:07;;;;;;;;;6.75;6.00;;;;;19.84;35.29;100387.69;4976061;28;45322;-72
2022/05/31 09:20:47;;;;;;;;;4.00;4.00;;;;;19.89;35.40;100391.78;4974713;28;45438;-69
2022/05/31 09:23:21;;;;;;;;;4.50;3.50;;;;;19.96;35.26;100388.50;4974821;28;45387;-70
2022/05/31 09:25:56;;;;;;;;;6.50;6.50;;;;;20.00;35.03;100389.09;4975008;28;45330;-69
2022/05/31 09:28:32;;;;;;;;;7.00;6.00;;;;;20.06;34.77;100385.91;4975291;28;45220;-71
2022/05/31 09:31:08;;;;;;;;;6.25;5.25;;;;;20.22;34.88;100395.31;4974813;28;45417;-70
2022/05/31 09:33:45;;;;;;;;;6.50;6.25;;;;;20.21;34.76;100380.25;4975795;28;45449;-70
2022/05/31 09:36:17;;;;;;;;;4.50;3.00;;;;;20.29;33.89;100381.31;4975691;28;45265;-70
2022/05/31 09:39:10;;;;;;;;;3.00;3.00;;;;;20.40;33.68;100384.91;4975072;28;45354;-70
2022/05/31 09:42:01;;;;;;;;;3.00;3.00;;;;;20.63;33.11;100390.94;4974102;28;48011;-70
2022/05/31 09:44:42;;;;;;;;;2.50;2.50;;;;;20.87;32.78;100387.16;4975579;28;45238;-70
2022/05/31 09:47:24;;;;;;;;;4.00;4.00;;;;;21.13;33.09;100381.34;4976271;28;45506;-70
2022/05/31 09:49:51;;;;;;;;;4.00;4.00;;;;;21.40;32.69;100374.53;4976688;28;45436;-71
2022/05/31 09:52:21;;;;;;;;;4.00;4.00;;;;;21.70;32.56;100379.00;4975403;28;46156;-70
2022/05/31 09:58:13;;;;;;;;;9.50;8.00;;;;;22.06;31.89;100375.75;4976794;28;45249;-70
2022/05/31 10:01:01;;;;;;;;;5.00;3.25;;;;;22.14;31.34;100375.03;4977461;28;45339;-70
2022/05/31 10:03:43;;;;;;;;;2.25;2.25;;;;;22.15;30.00;100379.41;4974233;28;46276;-71
2022/05/31 10:06:17;;;;;;;;;5.25;5.25;;;;;22.05;30.99;100366.03;4974504;28;45363;-71
2022/05/31 10:08:47;;;;;;;;;0.75;0.75;;;;;22.02;30.54;100367.16;4975193;28;45228;-70
2022/05/31 10:11:20;;;;;;;;;2.50;2.25;;;;;21.98;30.55;100376.47;4976234;28;45609;-70
2022/05/31 10:13:58;;;;;;;;;3.50;3.00;;;;;21.82;30.40;100374.34;4976854;28;47065;-70
2022/05/31 10:16:34;;;;;;;;;7.75;6.00;;;;;21.73;30.44;100376.03;4974508;28;45480;-68
2022/05/31 10:19:05;;;;;;;;;14.25;12.25;;;;;21.69;30.91;100371.94;4974986;28;45322;-69
2022/05/31 10:21:33;;;;;;;;;8.00;6.50;;;;;21.66;30.78;100380.25;4957530;28;45390;-71
2022/05/31 10:24:22;;;;;;;;;3.00;3.00;;;;;21.59;30.44;100377.25;4973516;28;46264;-73
2022/05/31 10:27:14;;;;;;;;;7.00;7.00;;;;;21.67;30.19;100371.25;4973792;28;45264;-70
2022/05/31 10:29:53;;;;;;;;;5.25;5.25;;;;;21.87;30.12;100374.78;4968294;28;45253;-71
2022/05/31 10:32:40;;;;;;;;;31.75;29.50;;;;;22.19;29.68;100372.78;4974636;28;45254;-71
2022/05/31 10:35:29;;;;;;;;;4.50;4.50;;;;;22.66;29.38;100355.94;4973828;28;46462;-69
2022/05/31 10:38:22;;;;;;;;;4.00;4.00;;;;;23.17;29.36;100369.81;4973762;28;45264;-69
2022/05/31 10:41:01;;;;;;;;;3.50;3.50;;;;;23.36;29.08;100368.09;4972531;28;45507;-71
2022/05/31 10:43:40;;;;;;;;;6.00;6.00;;;;;23.41;28.98;100371.16;4973363;28;45395;-70
2022/05/31 10:46:13;;;;;;;;;4.25;4.25;;;;;23.34;28.25;100378.94;4973007;28;47009;-71
2022/05/31 10:48:47;;;;;;;;;3.00;2.50;;;;;23.23;28.29;100371.06;4973104;28;45219;-68
2022/05/31 10:51:37;;;;;;;;;3.00;3.00;;;;;23.04;28.54;100377.38;4973620;28;45331;-74
2022/05/31 10:54:11;;;;;;;;;6.25;6.25;;;;;22.80;28.46;100368.03;4974683;28;45325;-70
2022/05/31 10:57:05;;;;;;;;;8.25;5.75;;;;;22.60;28.78;100372.59;4973701;28;45450;-70
2022/05/31 10:59:46;;;;;;;;;4.25;2.50;;;;;22.38;28.58;100368.41;4973767;28;45411;-70
2022/05/31 11:02:26;;;;;;;;;3.25;3.00;;;;;22.20;28.81;100374.47;4973400;28;45390;-69
2022/05/31 11:05:00;;;;;;;;;6.75;4.00;;;;;22.06;28.79;100372.22;4975587;28;45469;-71
2022/05/31 11:07:38;;;;;;;;;7.25;6.00;;;;;21.91;28.97;100377.19;4975734;27;46361;-69
2022/05/31 11:13:30;;;;;;;;;5.25;5.25;;;;;21.48;29.75;100379.22;4973288;28;45380;-70
2022/05/31 11:16:18;;;;;;;;;10.75;9.00;;;;;21.35;29.96;100369.63;4971655;28;45528;-70
2022/05/31 11:18:43;;;;;;;;;6.75;5.50;;;;;21.33;30.34;100373.38;4974116;28;45426;-70
2022/05/31 11:21:46;;;;;;;;;5.75;4.75;;;;;21.24;30.68;100385.78;4973474;28;45423;-70
2022/05/31 11:24:39;;;;;;;;;6.25;5.00;;;;;21.22;30.62;100387.75;4973598;27;45172;-71
2022/05/31 11:27:20;;;;;;;;;2.25;1.00;;;;;21.32;30.05;100380.59;4973679;28;45851;-70
2022/05/31 11:30:11;;;;;;;;;3.25;3.25;;;;;21.62;30.52;100377.94;4974851;28;46273;-70
2022/05/31 11:33:06;;;;;;;;;5.75;4.75;;;;;22.06;30.10;100380.25;4973503;27;45332;-70
2022/05/31 11:35:49;;;;;;;;;5.00;5.00;;;;;22.15;30.02;100374.06;4955785;28;45293;-70
2022/05/31 11:38:48;;;;;;;;;5.00;5.00;;;;;22.27;29.77;100388.16;4975759;28;45295;-71
2022/05/31 11:41:34;;;;;;;;;4.00;4.00;;;;;22.32;29.86;100388.56;4972417;28;46973;-69
2022/05/31 11:44:36;;;;;;;;;6.50;6.50;;;;;22.51;29.54;100398.44;4973781;27;45512;-69
2022/05/31 11:47:34;;;;;;;;;8.75;7.00;;;;;22.60;29.39;100397.56;4975274;27;45378;-70
2022/05/31 11:50:22;;;;;;;;;5.50;5.50;;;;;22.83;29.28;100391.03;4973552;27;45448;-71
2022/05/31 11:53:15;;;;;;;;;2.25;2.25;;;;;22.91;28.80;100402.69;4966743;28;47954;-71
2022/05/31 11:55:49;;;;;;;;;3.75;3.75;;;;;23.01;29.43;100399.13;4973972;28;45387;-70
2022/05/31 11:58:30;;;;;;;;;6.25;5.50;;;;;23.31;29.01;100387.31;4973514;28;45389;-71
2022/05/31 12:01:11;;;;;;;;;7.00;7.00;;;;;23.64;28.84;100394.88;4973306;28;45141;-70
2022/05/31 12:03:53;;;;;;;;;1.25;1.25;;;;;23.87;28.56;100395.28;4972275;28;46417;-69
2022/05/31 12:06:37;;;;;;;;;4.00;4.00;;;;;23.90;28.06;100392.28;4972154;28;45337;-69
2022/05/31 12:09:25;;;;;;;;;8.25;7.25;;;;;23.81;28.02;100393.19;4975463;28;45183;-69